createdAt,value
2018-07-08T00:00:26.760Z,43.4
2018-07-08T00:02:30.089Z,43.5
2018-07-08T00:04:33.419Z,43.4
2018-07-08T00:06:36.749Z,43.3
2018-07-08T00:08:40.076Z,43.2
2018-07-08T00:10:43.407Z,43.4
2018-07-08T00:12:49.602Z,43.4
2018-07-08T00:14:52.931Z,43.2
2018-07-08T00:16:56.261Z,43.4
2018-07-08T00:18:59.589Z,43.4
2018-07-08T00:21:02.919Z,43.2
2018-07-08T00:23:06.570Z,43.3
2018-07-08T00:25:16.212Z,43.4
2018-07-08T00:27:25.475Z,43.4
2018-07-08T00:29:28.803Z,43.2
2018-07-08T00:31:32.131Z,43.2
2018-07-08T00:33:35.461Z,43.1
2018-07-08T00:35:38.789Z,43.3
2018-07-08T00:37:42.120Z,43.2
2018-07-08T00:39:45.507Z,42.8
2018-07-08T00:41:49.054Z,42.9
2018-07-08T00:43:52.382Z,43
2018-07-08T00:45:55.762Z,42.9
2018-07-08T00:47:59.092Z,42.9
2018-07-08T00:50:02.421Z,42.8
2018-07-08T00:52:05.748Z,42.7
2018-07-08T00:54:09.081Z,42.7
2018-07-08T00:56:12.409Z,42.6
2018-07-08T00:58:15.750Z,42.7
2018-07-08T01:00:19.067Z,42.4
2018-07-08T01:02:25.341Z,42.4
2018-07-08T01:04:28.670Z,42.6
2018-07-08T01:06:32.040Z,42.5
2018-07-08T01:08:35.369Z,42.3
2018-07-08T01:10:38.715Z,42.5
2018-07-08T01:12:42.044Z,42.2
2018-07-08T01:14:45.372Z,42.1
2018-07-08T01:16:48.701Z,42.2
2018-07-08T01:18:52.030Z,42.3
2018-07-08T01:20:55.389Z,42.2
2018-07-08T01:22:58.717Z,42.3
2018-07-08T01:25:02.045Z,42.5
2018-07-08T01:27:05.377Z,42.5
2018-07-08T01:29:11.678Z,42.4
2018-07-08T01:31:15.003Z,42.5
2018-07-08T01:33:18.334Z,42.6
2018-07-08T01:35:21.662Z,42.5
2018-07-08T01:37:24.992Z,42.5
2018-07-08T01:39:28.320Z,42.6
2018-07-08T01:41:31.649Z,42.5
2018-07-08T01:43:34.977Z,42.5
2018-07-08T01:45:38.342Z,42.5
2018-07-08T01:47:41.673Z,42.4
2018-07-08T01:49:45.003Z,42.5
2018-07-08T01:51:51.311Z,42.6
2018-07-08T01:53:54.642Z,42.3
2018-07-08T01:55:57.971Z,42.3
2018-07-08T01:58:01.339Z,42.4
2018-07-08T02:00:04.714Z,42.3
2018-07-08T02:02:12.070Z,42.3
2018-07-08T02:04:15.422Z,42.2
2018-07-08T02:06:18.751Z,42.2
2018-07-08T02:08:22.100Z,42.1
2018-07-08T02:10:25.464Z,41.9
2018-07-08T02:12:28.844Z,41.9
2018-07-08T02:14:32.172Z,41.9
2018-07-08T02:16:35.503Z,42.1
2018-07-08T02:18:38.830Z,42
2018-07-08T02:20:42.190Z,42
2018-07-08T02:22:45.520Z,42.3
2018-07-08T02:24:48.867Z,42.3
2018-07-08T02:26:52.197Z,42.2
2018-07-08T02:28:55.524Z,42.3
2018-07-08T02:30:58.858Z,42.4
2018-07-08T02:33:02.185Z,42.3
2018-07-08T02:35:05.515Z,42.5
2018-07-08T02:37:08.844Z,42.3
2018-07-08T02:39:12.172Z,42.3
2018-07-08T02:41:15.502Z,42.1
2018-07-08T02:43:18.832Z,42.1
2018-07-08T02:45:22.162Z,42.3
2018-07-08T02:47:25.530Z,42.1
2018-07-08T02:49:28.861Z,42.3
2018-07-08T02:51:32.188Z,42.1
2018-07-08T02:53:35.522Z,42.1
2018-07-08T02:55:38.931Z,42.2
2018-07-08T02:57:42.260Z,42.1
2018-07-08T02:59:45.590Z,42.1
2018-07-08T03:01:48.923Z,42.1
2018-07-08T03:03:52.430Z,42.1
2018-07-08T03:05:55.770Z,42
2018-07-08T03:07:59.088Z,42
2018-07-08T03:10:02.414Z,41.9
2018-07-08T03:12:05.943Z,41.8
2018-07-08T03:14:09.285Z,41.9
2018-07-08T03:16:12.598Z,41.9
2018-07-08T03:18:15.933Z,41.9
2018-07-08T03:20:19.266Z,41.8
2018-07-08T03:22:22.591Z,41.7
2018-07-08T03:24:25.922Z,41.8
2018-07-08T03:26:29.247Z,41.8
2018-07-08T03:28:32.578Z,41.9
2018-07-08T03:30:35.936Z,42
2018-07-08T03:32:39.275Z,42
2018-07-08T03:34:42.607Z,42
2018-07-08T03:36:45.936Z,42.2
2018-07-08T03:38:49.265Z,41.9
2018-07-08T03:40:52.592Z,42
2018-07-08T03:42:55.923Z,42
2018-07-08T03:44:59.252Z,42
2018-07-08T03:47:02.584Z,41.9
2018-07-08T03:49:05.910Z,41.9
2018-07-08T03:51:09.239Z,41.9
2018-07-08T03:53:12.567Z,41.8
2018-07-08T03:55:15.898Z,41.9
2018-07-08T03:57:19.226Z,42
2018-07-08T03:59:22.555Z,42.1
2018-07-08T04:01:25.891Z,42
2018-07-08T04:03:29.222Z,42
2018-07-08T04:05:32.550Z,41.9
2018-07-08T04:07:35.879Z,41.9
2018-07-08T04:09:39.212Z,41.8
2018-07-08T04:11:42.542Z,41.8
2018-07-08T04:13:45.871Z,41.8
2018-07-08T04:15:49.200Z,41.7
2018-07-08T04:17:52.529Z,41.9
2018-07-08T04:19:55.859Z,41.8
2018-07-08T04:21:59.187Z,41.7
2018-07-08T04:24:02.543Z,41.7
2018-07-08T04:26:05.849Z,41.8
2018-07-08T04:28:11.824Z,41.6
2018-07-08T04:30:15.158Z,41.6
2018-07-08T04:32:18.494Z,41.5
2018-07-08T04:34:21.823Z,41.6
2018-07-08T04:36:25.152Z,41.5
2018-07-08T04:38:28.485Z,41.3
2018-07-08T04:40:31.819Z,41.6
2018-07-08T04:42:35.142Z,41.7
2018-07-08T04:44:38.472Z,41.7
2018-07-08T04:46:41.799Z,41.6
2018-07-08T04:48:45.134Z,41.7
2018-07-08T04:50:48.462Z,41.6
2018-07-08T04:52:51.796Z,41.5
2018-07-08T04:54:55.122Z,41.4
2018-07-08T04:56:58.452Z,41.7
2018-07-08T04:59:01.782Z,41.6
2018-07-08T05:01:05.112Z,41.7
2018-07-08T05:03:08.442Z,41.6
2018-07-08T05:05:11.803Z,41.7
2018-07-08T05:07:15.133Z,41.6
2018-07-08T05:09:18.470Z,41.6
2018-07-08T05:11:21.795Z,41.5
2018-07-08T05:13:25.158Z,41.6
2018-07-08T05:15:28.488Z,41.6
2018-07-08T05:17:31.817Z,41.7
2018-07-08T05:19:35.144Z,41.6
2018-07-08T05:21:38.509Z,41.7
2018-07-08T05:23:41.839Z,41.5
2018-07-08T05:25:45.168Z,41.5
2018-07-08T05:27:48.497Z,41.7
2018-07-08T05:29:52.015Z,41.7
2018-07-08T05:31:55.710Z,41.5
2018-07-08T05:33:59.058Z,41.6
2018-07-08T05:36:02.373Z,41.6
2018-07-08T05:38:05.704Z,41.6
2018-07-08T05:40:09.031Z,41.6
2018-07-08T05:42:12.363Z,41.7
2018-07-08T05:44:15.724Z,41.8
2018-07-08T05:46:19.053Z,41.8
2018-07-08T05:48:22.381Z,41.7
2018-07-08T05:50:25.946Z,41.8
2018-07-08T05:52:29.883Z,41.9
2018-07-08T05:54:33.208Z,41.7
2018-07-08T05:56:36.539Z,41.8
2018-07-08T05:58:39.868Z,41.8
2018-07-08T06:00:43.197Z,41.8
2018-07-08T06:02:46.563Z,41.9
2018-07-08T06:04:49.891Z,41.8
2018-07-08T06:06:53.222Z,41.8
2018-07-08T06:08:56.550Z,41.8
2018-07-08T06:10:59.881Z,41.9
2018-07-08T06:13:03.210Z,41.8
2018-07-08T06:15:06.539Z,41.7
2018-07-08T06:17:09.868Z,41.8
2018-07-08T06:19:13.197Z,41.7
2018-07-08T06:21:16.525Z,41.6
2018-07-08T06:23:19.855Z,41.7
2018-07-08T06:25:23.220Z,41.8
2018-07-08T06:27:26.568Z,41.9
2018-07-08T06:29:29.882Z,41.8
2018-07-08T06:31:33.215Z,41.6
2018-07-08T06:33:36.539Z,41.4
2018-07-08T06:35:39.871Z,41.4
2018-07-08T06:37:43.202Z,41.4
2018-07-08T06:39:46.528Z,41.4
2018-07-08T06:41:49.857Z,41.4
2018-07-08T06:43:53.185Z,41.3
2018-07-08T06:45:56.536Z,41.3
2018-07-08T06:47:59.861Z,41.4
2018-07-08T06:50:03.215Z,41.4
2018-07-08T06:52:07.626Z,41.3
2018-07-08T06:54:11.111Z,41.3
2018-07-08T06:56:14.436Z,41.3
2018-07-08T06:58:17.807Z,41.4
2018-07-08T07:00:21.134Z,41.3
2018-07-08T07:02:24.468Z,41.4
2018-07-08T07:04:27.797Z,41.4
2018-07-08T07:06:31.127Z,41.3
2018-07-08T07:08:34.456Z,41.4
2018-07-08T07:10:37.784Z,41.4
2018-07-08T07:12:41.114Z,41.5
2018-07-08T07:14:44.444Z,41.4
2018-07-08T07:16:47.772Z,41.6
2018-07-08T07:18:51.102Z,41.4
2018-07-08T07:20:54.431Z,41.4
2018-07-08T07:22:58.738Z,41.5
2018-07-08T07:25:02.212Z,41.6
2018-07-08T07:27:05.546Z,41.6
2018-07-08T07:29:08.888Z,41.7
2018-07-08T07:31:12.217Z,41.6
2018-07-08T07:33:15.547Z,41.5
2018-07-08T07:35:18.873Z,41.4
2018-07-08T07:37:22.374Z,41.3
2018-07-08T07:39:26.200Z,41.4
2018-07-08T07:41:29.548Z,41.3
2018-07-08T07:43:32.875Z,41.3
2018-07-08T07:45:36.206Z,41.4
2018-07-08T07:47:39.539Z,41.4
2018-07-08T07:49:42.869Z,41.5
2018-07-08T07:51:46.198Z,41.5
2018-07-08T07:53:49.527Z,41.5
2018-07-08T07:55:52.867Z,41.5
2018-07-08T07:57:56.198Z,41.6
2018-07-08T07:59:59.525Z,41.6
2018-07-08T08:02:02.856Z,41.6
2018-07-08T08:04:07.115Z,41.6
2018-07-08T08:06:10.444Z,41.7
2018-07-08T08:08:13.775Z,41.7
2018-07-08T08:10:17.150Z,41.7
2018-07-08T08:12:20.478Z,41.7
2018-07-08T08:14:23.807Z,41.7
2018-07-08T08:16:27.137Z,41.8
2018-07-08T08:18:30.467Z,41.6
2018-07-08T08:20:33.795Z,41.8
2018-07-08T08:22:37.138Z,41.8
2018-07-08T08:24:41.497Z,41.7
2018-07-08T08:26:44.983Z,41.7
2018-07-08T08:28:48.675Z,41.6
2018-07-08T08:30:52.005Z,41.7
2018-07-08T08:32:55.343Z,41.8
2018-07-08T08:34:58.667Z,41.8
2018-07-08T08:37:01.995Z,41.8
2018-07-08T08:39:05.321Z,41.6
2018-07-08T08:41:08.653Z,41.7
2018-07-08T08:43:11.983Z,41.8
2018-07-08T08:45:15.312Z,41.7
2018-07-08T08:47:18.644Z,41.7
2018-07-08T08:49:21.974Z,41.8
2018-07-08T08:51:25.305Z,41.7
2018-07-08T08:53:28.635Z,41.8
2018-07-08T08:55:31.972Z,41.8
2018-07-08T08:57:35.298Z,41.9
2018-07-08T08:59:38.627Z,41.9
2018-07-08T09:01:41.956Z,41.9
2018-07-08T09:03:45.386Z,42
2018-07-08T09:05:48.780Z,41.9
2018-07-08T09:07:52.112Z,42.1
2018-07-08T09:09:55.454Z,42
2018-07-08T09:11:58.767Z,42
2018-07-08T09:14:02.096Z,42.2
2018-07-08T09:16:05.426Z,42
2018-07-08T09:18:08.757Z,42.1
2018-07-08T09:20:12.086Z,42
2018-07-08T09:22:15.448Z,41.9
2018-07-08T09:24:18.775Z,41.7
2018-07-08T09:26:22.116Z,41.6
2018-07-08T09:28:25.435Z,41.6
2018-07-08T09:30:28.768Z,41.6
2018-07-08T09:32:32.092Z,41.5
2018-07-08T09:34:35.422Z,41.5
2018-07-08T09:36:38.751Z,41.4
2018-07-08T09:38:42.285Z,41.6
2018-07-08T09:40:46.188Z,41.7
2018-07-08T09:42:49.518Z,41.7
2018-07-08T09:44:52.930Z,41.9
2018-07-08T09:46:56.257Z,41.9
2018-07-08T09:48:59.586Z,42
2018-07-08T09:51:02.915Z,42.1
2018-07-08T09:53:06.248Z,42.1
2018-07-08T09:55:09.584Z,42.2
2018-07-08T09:57:12.903Z,42.2
2018-07-08T09:59:16.234Z,42.3
2018-07-08T10:01:19.562Z,42.3
2018-07-08T10:03:22.890Z,42.3
2018-07-08T10:05:26.403Z,42.3
2018-07-08T10:07:29.730Z,42.6
2018-07-08T10:09:33.059Z,43.2
2018-07-08T10:11:36.429Z,43.8
2018-07-08T10:13:39.884Z,43.8
2018-07-08T10:15:43.608Z,45.1
2018-07-08T10:17:47.223Z,45.6
2018-07-08T10:19:51.855Z,45.4
2018-07-08T10:21:56.889Z,45.1
2018-07-08T10:24:00.217Z,45.7
2018-07-08T10:26:06.539Z,45.8
2018-07-08T10:28:09.869Z,45.8
2018-07-08T10:30:13.295Z,45.6
2018-07-08T10:32:16.592Z,45
2018-07-08T10:34:19.932Z,44.7
2018-07-08T10:36:23.265Z,44.8
2018-07-08T10:38:26.642Z,45.6
2018-07-08T10:40:30.077Z,45.4
2018-07-08T10:42:33.363Z,45.9
2018-07-08T10:44:36.692Z,46.1
2018-07-08T10:46:40.023Z,46.2
2018-07-08T10:48:43.352Z,47.1
2018-07-08T10:50:46.685Z,47.4
2018-07-08T10:52:50.019Z,47.5
2018-07-08T10:54:53.344Z,47.5
2018-07-08T10:56:56.705Z,48
2018-07-08T10:59:00.080Z,48.1
2018-07-08T11:01:03.393Z,47.4
2018-07-08T11:03:06.724Z,47.5
2018-07-08T11:05:10.097Z,47.6
2018-07-08T11:07:13.430Z,47.9
2018-07-08T11:09:16.757Z,47.9
2018-07-08T11:11:20.089Z,48
2018-07-08T11:13:23.415Z,48
2018-07-08T11:15:26.748Z,48.1
2018-07-08T11:17:30.077Z,46.9
2018-07-08T11:19:33.471Z,47.3
2018-07-08T11:21:36.806Z,47.9
2018-07-08T11:23:40.174Z,48.2
2018-07-08T11:25:43.505Z,48.2
2018-07-08T11:27:46.835Z,47.9
2018-07-08T11:29:50.166Z,48
2018-07-08T11:31:53.495Z,48.4
2018-07-08T11:33:56.826Z,48.9
2018-07-08T11:36:00.186Z,48.6
2018-07-08T11:38:03.788Z,48.8
2018-07-08T11:40:07.156Z,48.7
2018-07-08T11:42:10.487Z,48.9
2018-07-08T11:44:13.813Z,48.2
2018-07-08T11:46:17.145Z,48.3
2018-07-08T11:48:20.487Z,48.6
2018-07-08T11:50:23.817Z,48.7
2018-07-08T11:52:27.150Z,48.8
2018-07-08T11:54:30.476Z,48.7
2018-07-08T11:56:33.808Z,48.6
2018-07-08T11:58:37.135Z,49
2018-07-08T12:00:40.464Z,48.9
2018-07-08T12:02:43.793Z,49.2
2018-07-08T12:04:48.053Z,49.1
2018-07-08T12:06:51.570Z,49
2018-07-08T12:08:55.114Z,49.1
2018-07-08T12:10:58.678Z,49.5
2018-07-08T12:13:02.007Z,49.4
2018-07-08T12:15:05.343Z,49.1
2018-07-08T12:17:08.673Z,49.4
2018-07-08T12:19:12.007Z,49.1
2018-07-08T12:21:15.413Z,49.1
2018-07-08T12:23:18.979Z,48.5
2018-07-08T12:25:22.313Z,48.4
2018-07-08T12:27:25.641Z,48.3
2018-07-08T12:29:28.969Z,48.7
2018-07-08T12:31:32.299Z,49.1
2018-07-08T12:33:35.635Z,49.3
2018-07-08T12:35:38.959Z,49.2
2018-07-08T12:37:42.292Z,49.3
2018-07-08T12:39:45.622Z,49.1
2018-07-08T12:41:48.951Z,49.1
2018-07-08T12:43:52.286Z,48.7
2018-07-08T12:45:55.612Z,48.6
2018-07-08T12:47:58.943Z,48.7
2018-07-08T12:50:02.306Z,48.3
2018-07-08T12:52:05.645Z,48.4
2018-07-08T12:54:09.010Z,48.5
2018-07-08T12:56:12.340Z,48.7
2018-07-08T12:58:15.699Z,47.9
2018-07-08T13:00:19.030Z,48.5
2018-07-08T13:02:22.374Z,48
2018-07-08T13:04:25.705Z,47.5
2018-07-08T13:06:29.163Z,46.5
2018-07-08T13:08:32.590Z,45.3
2018-07-08T13:10:35.919Z,45.5
2018-07-08T13:12:39.252Z,45.4
2018-07-08T13:14:42.585Z,45.7
2018-07-08T13:16:45.912Z,45.7
2018-07-08T13:18:49.245Z,46.1
2018-07-08T13:20:52.601Z,46.5
2018-07-08T13:22:56.859Z,46.9
2018-07-08T13:25:03.188Z,47.7
2018-07-08T13:27:06.551Z,48.2
2018-07-08T13:29:09.923Z,48.4
2018-07-08T13:31:13.254Z,48.7
2018-07-08T13:33:16.583Z,48.1
2018-07-08T13:35:19.916Z,48
2018-07-08T13:37:23.251Z,47.6
2018-07-08T13:39:26.573Z,47.8
2018-07-08T13:41:29.904Z,47.7
2018-07-08T13:43:33.233Z,47.7
2018-07-08T13:45:37.498Z,47.7
2018-07-08T13:47:40.884Z,47.7
2018-07-08T13:49:44.173Z,47.5
2018-07-08T13:51:47.505Z,47.6
2018-07-08T13:53:50.862Z,47.8
2018-07-08T13:55:54.185Z,48
2018-07-08T13:57:57.578Z,47.6
2018-07-08T14:00:00.908Z,47.2
2018-07-08T14:02:04.245Z,46.9
2018-07-08T14:04:07.571Z,46.8
2018-07-08T14:06:10.900Z,46.9
2018-07-08T14:08:14.230Z,47.5
2018-07-08T14:10:18.553Z,47.6
2018-07-08T14:12:21.883Z,47.6
2018-07-08T14:14:25.214Z,47.2
2018-07-08T14:16:28.580Z,47
2018-07-08T14:18:31.940Z,47.2
2018-07-08T14:20:35.611Z,47.1
2018-07-08T14:22:45.333Z,47.1
2018-07-08T14:24:48.693Z,46.8
2018-07-08T14:26:52.025Z,46.8
2018-07-08T14:28:55.572Z,46.8
2018-07-08T14:30:58.906Z,46.8
2018-07-08T14:33:02.453Z,46.9
2018-07-08T14:35:05.946Z,46.8
2018-07-08T14:37:09.460Z,46.7
2018-07-08T14:39:12.735Z,46.6
2018-07-08T14:41:16.790Z,46.6
2018-07-08T14:43:20.092Z,46.8
2018-07-08T14:45:26.541Z,46.7
2018-07-08T14:47:32.852Z,46.6
2018-07-08T14:49:38.792Z,46.7
2018-07-08T14:51:42.140Z,46.6
2018-07-08T14:53:45.554Z,46.6
2018-07-08T14:55:52.013Z,46.6
2018-07-08T14:57:55.290Z,46.6
2018-07-08T14:59:58.619Z,46.6
2018-07-08T15:02:01.949Z,46.5
2018-07-08T15:04:06.421Z,46.5
2018-07-08T15:06:09.768Z,46.5
2018-07-08T15:08:15.776Z,46.5
2018-07-08T15:10:20.108Z,46.4
2018-07-08T15:12:23.386Z,46.4
2018-07-08T15:14:26.719Z,46.5
2018-07-08T15:16:33.080Z,46.3
2018-07-08T15:18:36.555Z,46.2
2018-07-08T15:20:42.696Z,46.2
2018-07-08T15:22:45.992Z,46.2
2018-07-08T15:24:49.320Z,46.2
2018-07-08T15:26:53.664Z,46.2
2018-07-08T15:28:56.942Z,46.2
2018-07-08T15:31:00.467Z,46.2
2018-07-08T15:33:03.793Z,46.3
2018-07-08T15:35:07.125Z,46.2
2018-07-08T15:37:13.382Z,46.2
2018-07-08T15:39:16.722Z,46.1
2018-07-08T15:41:20.283Z,46.1
2018-07-08T15:43:23.615Z,46.1
2018-07-08T15:45:26.944Z,46
2018-07-08T15:47:30.462Z,46
2018-07-08T15:49:34.375Z,46
2018-07-08T15:51:38.253Z,46
2018-07-08T15:53:41.663Z,45.9
2018-07-08T15:55:45.927Z,45.9
2018-07-08T15:57:49.208Z,46
2018-07-08T15:59:52.537Z,46
2018-07-08T16:01:55.897Z,46.1
2018-07-08T16:03:59.225Z,46.3
2018-07-08T16:06:02.683Z,46.3
2018-07-08T16:08:06.287Z,46.2
2018-07-08T16:10:09.618Z,46.3
2018-07-08T16:12:12.946Z,46.3
2018-07-08T16:14:16.283Z,46.2
2018-07-08T16:16:19.612Z,46.2
2018-07-08T16:18:23.083Z,46.1
2018-07-08T16:20:27.037Z,46.1
2018-07-08T16:22:30.369Z,46
2018-07-08T16:24:33.724Z,45.9
2018-07-08T16:26:37.052Z,45.9
2018-07-08T16:28:40.415Z,46
2018-07-08T16:30:43.748Z,46
2018-07-08T16:32:47.077Z,45.9
2018-07-08T16:34:50.415Z,46
2018-07-08T16:36:53.754Z,46
2018-07-08T16:38:57.083Z,46.1
2018-07-08T16:41:00.431Z,45.8
2018-07-08T16:43:03.760Z,45.8
2018-07-08T16:45:07.097Z,45.7
2018-07-08T16:47:10.424Z,45.8
2018-07-08T16:49:22.486Z,45.8
2018-07-08T16:51:25.816Z,45.8
2018-07-08T16:53:32.480Z,45.8
2018-07-08T16:55:35.807Z,45.8
2018-07-08T16:57:39.161Z,45.8
2018-07-08T16:59:43.487Z,45.9
2018-07-08T17:01:46.817Z,45.8
2018-07-08T17:03:50.149Z,45.9
2018-07-08T17:05:53.477Z,45.9
2018-07-08T17:07:56.804Z,45.9
2018-07-08T17:10:01.261Z,45.9
2018-07-08T17:12:04.615Z,45.9
2018-07-08T17:14:08.932Z,45.8
2018-07-08T17:16:15.053Z,45.8
2018-07-08T17:18:19.296Z,45.8
2018-07-08T17:20:22.652Z,45.8
2018-07-08T17:22:25.981Z,45.8
2018-07-08T17:24:30.285Z,45.8
2018-07-08T17:26:37.716Z,45.8
2018-07-08T17:28:44.113Z,45.8
2018-07-08T17:30:47.446Z,45.8
2018-07-08T17:32:50.827Z,45.7
2018-07-08T17:34:54.207Z,45.6
2018-07-08T17:36:57.513Z,45.7
2018-07-08T17:39:00.841Z,45.6
2018-07-08T17:41:05.385Z,45.6
2018-07-08T17:43:08.665Z,45.7
2018-07-08T17:45:11.991Z,45.7
2018-07-08T17:47:15.322Z,45.6
2018-07-08T17:49:18.686Z,45.6
2018-07-08T17:51:22.215Z,45.7
2018-07-08T17:53:25.573Z,45.7
2018-07-08T17:55:29.154Z,46
2018-07-08T17:57:32.495Z,46
2018-07-08T17:59:36.056Z,46.7
2018-07-08T18:01:39.384Z,46.8
2018-07-08T18:03:42.715Z,47.2
2018-07-08T18:05:46.090Z,47.2
2018-07-08T18:07:49.379Z,46.8
2018-07-08T18:09:53.653Z,46.8
2018-07-08T18:11:57.009Z,46.8
2018-07-08T18:14:00.388Z,46.5
2018-07-08T18:16:03.836Z,46.6
2018-07-08T18:18:07.165Z,46.9
2018-07-08T18:20:10.497Z,46.3
2018-07-08T18:22:13.825Z,45.4
2018-07-08T18:24:17.164Z,46.4
2018-07-08T18:26:20.497Z,46.3
2018-07-08T18:28:23.823Z,46.3
2018-07-08T18:30:27.154Z,46.5
2018-07-08T18:32:31.411Z,46.2
2018-07-08T18:34:34.752Z,45.9
2018-07-08T18:36:38.082Z,45.7
2018-07-08T18:38:41.414Z,45.4
2018-07-08T18:40:50.732Z,45.6
2018-07-08T18:42:54.727Z,45.5
2018-07-08T18:44:58.057Z,45.2
2018-07-08T18:47:01.387Z,45.1
2018-07-08T18:49:04.760Z,45
2018-07-08T18:51:08.086Z,45.3
2018-07-08T18:53:11.416Z,44.9
2018-07-08T18:55:14.839Z,44.9
2018-07-08T18:57:18.337Z,44.9
2018-07-08T18:59:21.879Z,44.6
2018-07-08T19:01:25.514Z,44.6
2018-07-08T19:03:28.845Z,42.6
2018-07-08T19:05:32.195Z,42
2018-07-08T19:07:35.526Z,43.1
2018-07-08T19:09:38.864Z,43.3
2018-07-08T19:11:42.193Z,44.2
2018-07-08T19:13:45.525Z,44.4
2018-07-08T19:15:48.897Z,44.8
2018-07-08T19:17:52.323Z,45
2018-07-08T19:19:55.678Z,45.1
2018-07-08T19:21:58.990Z,45.4
2018-07-08T19:24:02.376Z,45.3
2018-07-08T19:26:05.726Z,45.5
2018-07-08T19:28:09.058Z,45.7
2018-07-08T19:30:12.389Z,45.7
2018-07-08T19:32:15.721Z,45.9
2018-07-08T19:34:19.050Z,46.3
2018-07-08T19:36:22.379Z,46.2
2018-07-08T19:38:25.709Z,46.3
2018-07-08T19:40:29.225Z,46.4
2018-07-08T19:42:33.152Z,46.5
2018-07-08T19:44:38.756Z,46.7
2018-07-08T19:46:42.276Z,46.6
2018-07-08T19:48:45.603Z,46.6
2018-07-08T19:50:48.933Z,46.7
2018-07-08T19:52:52.312Z,46.8
2018-07-08T19:54:55.640Z,46.9
2018-07-08T19:56:58.971Z,46.6
2018-07-08T19:59:02.405Z,46.8
2018-07-08T20:01:05.805Z,47.1
2018-07-08T20:03:09.787Z,46.9
2018-07-08T20:05:13.116Z,47
2018-07-08T20:07:16.562Z,46.9
2018-07-08T20:09:19.977Z,46.9
2018-07-08T20:11:23.309Z,46.7
2018-07-08T20:13:26.639Z,46.5
2018-07-08T20:15:30.056Z,46.6
2018-07-08T20:17:33.426Z,46.6
2018-07-08T20:19:36.858Z,46.6
2018-07-08T20:21:40.342Z,46.6
2018-07-08T20:23:44.214Z,46.7
2018-07-08T20:25:47.573Z,46.6
2018-07-08T20:27:50.870Z,46.5
2018-07-08T20:29:54.201Z,46.8
2018-07-08T20:31:57.532Z,46.7
2018-07-08T20:34:00.862Z,46.7
2018-07-08T20:36:04.427Z,46.6
2018-07-08T20:38:07.760Z,46.9
2018-07-08T20:40:11.097Z,47
2018-07-08T20:42:14.417Z,46.9
2018-07-08T20:44:17.783Z,47
2018-07-08T20:46:22.012Z,46.5
2018-07-08T20:48:25.347Z,46.3
2018-07-08T20:50:28.684Z,46.4
2018-07-08T20:52:32.014Z,46
2018-07-08T20:54:35.343Z,46.1
2018-07-08T20:56:38.695Z,46.4
2018-07-08T20:58:42.027Z,46.5
2018-07-08T21:00:45.517Z,46.3
2018-07-08T21:02:48.845Z,45.8
2018-07-08T21:04:52.177Z,45.3
2018-07-08T21:06:55.508Z,45.3
2018-07-08T21:08:58.839Z,45.2
2018-07-08T21:11:02.190Z,44.9
2018-07-08T21:13:05.527Z,45
2018-07-08T21:15:08.860Z,45.1
2018-07-08T21:17:12.257Z,45.1
2018-07-08T21:19:15.677Z,45
2018-07-08T21:21:19.082Z,45.1
2018-07-08T21:23:22.413Z,45.1
2018-07-08T21:25:25.741Z,45.1
2018-07-08T21:27:29.073Z,45.2
2018-07-08T21:29:32.406Z,45.1
2018-07-08T21:31:35.745Z,45.1
2018-07-08T21:33:39.075Z,45
2018-07-08T21:35:42.407Z,45
2018-07-08T21:37:45.738Z,45.2
2018-07-08T21:39:49.067Z,44.5
2018-07-08T21:41:52.400Z,44.8
2018-07-08T21:43:55.803Z,45
2018-07-08T21:45:59.094Z,45
2018-07-08T21:48:02.423Z,44.9
2018-07-08T21:50:05.773Z,45
2018-07-08T21:52:09.105Z,45
2018-07-08T21:54:12.451Z,45.1
2018-07-08T21:56:15.767Z,44.8
2018-07-08T21:58:20.030Z,44.8
2018-07-08T22:00:23.359Z,44.9
2018-07-08T22:02:26.693Z,44.5
2018-07-08T22:04:30.021Z,44.6
2018-07-08T22:06:33.354Z,44.4
2018-07-08T22:08:36.687Z,44.3
2018-07-08T22:10:40.061Z,45.4
2018-07-08T22:12:43.392Z,44.7
2018-07-08T22:14:46.722Z,45.3
2018-07-08T22:16:50.089Z,44.3
2018-07-08T22:18:53.421Z,43.8
2018-07-08T22:20:56.750Z,43.8
2018-07-08T22:23:00.081Z,43.5
2018-07-08T22:25:03.455Z,43.6
2018-07-08T22:27:06.783Z,43.4
2018-07-08T22:29:10.112Z,43
2018-07-08T22:31:13.442Z,42.8
2018-07-08T22:33:16.807Z,41.8
2018-07-08T22:35:20.141Z,41.5
2018-07-08T22:37:23.469Z,41.7
2018-07-08T22:39:26.883Z,41.8
2018-07-08T22:41:30.335Z,41.5
2018-07-08T22:43:36.386Z,41.5
2018-07-08T22:45:39.718Z,41.5
2018-07-08T22:47:43.050Z,41.3
2018-07-08T22:49:46.441Z,41.4
2018-07-08T22:51:49.772Z,41.5
2018-07-08T22:53:53.105Z,41.6
2018-07-08T22:55:56.434Z,41.5
2018-07-08T22:57:59.767Z,41.5
2018-07-08T23:00:03.135Z,41.5
2018-07-08T23:02:06.569Z,41.4
2018-07-08T23:04:09.896Z,41.7
2018-07-08T23:06:13.256Z,41.5
2018-07-08T23:08:16.587Z,41.4
2018-07-08T23:10:19.921Z,41.7
2018-07-08T23:12:23.384Z,41.9
2018-07-08T23:14:27.319Z,41.7
2018-07-08T23:16:30.650Z,42.4
2018-07-08T23:18:34.017Z,43.4
2018-07-08T23:20:37.349Z,42
2018-07-08T23:22:40.681Z,42
2018-07-08T23:24:44.011Z,42
2018-07-08T23:26:47.344Z,41.7
2018-07-08T23:28:50.675Z,41.6
2018-07-08T23:30:54.006Z,41.5
2018-07-08T23:32:57.336Z,41.3
2018-07-08T23:35:00.702Z,41.2
2018-07-08T23:37:04.068Z,41.3
2018-07-08T23:39:07.400Z,41
2018-07-08T23:41:10.732Z,41.2
2018-07-08T23:43:14.066Z,41.1
2018-07-08T23:45:17.393Z,41
2018-07-08T23:47:20.725Z,40.8
2018-07-08T23:49:24.058Z,40.9
2018-07-08T23:51:27.387Z,40.8
2018-07-08T23:53:30.718Z,40.8
2018-07-08T23:55:34.050Z,41.2
2018-07-08T23:57:37.378Z,41.9
2018-07-08T23:59:40.749Z,41.8
